sensor_id;sensor_type;location;lat;lon;timestamp;P1;durP1;ratioP1;P2;durP2;ratioP2
34836;SDS011;21053;50.848;4.652;2023-09-12T00:00:06;5.15;;;4.75;;
34836;SDS011;21053;50.848;4.652;2023-09-12T00:02:32;5.45;;;5.03;;
34836;SDS011;21053;50.848;4.652;2023-09-12T00:04:59;30.05;;;5.82;;
34836;SDS011;21053;50.848;4.652;2023-09-12T00:07:25;12.68;;;6.28;;
34836;SDS011;21053;50.848;4.652;2023-09-12T00:09:52;18.20;;;7.90;;
34836;SDS011;21053;50.848;4.652;2023-09-12T00:12:21;5.57;;;5.18;;
34836;SDS011;21053;50.848;4.652;2023-09-12T00:14:48;5.82;;;5.32;;
34836;SDS011;21053;50.848;4.652;2023-09-12T00:17:14;7.68;;;5.60;;
34836;SDS011;21053;50.848;4.652;2023-09-12T00:19:43;6.07;;;5.55;;
34836;SDS011;21053;50.848;4.652;2023-09-12T00:22:09;6.85;;;6.25;;
34836;SDS011;21053;50.848;4.652;2023-09-12T00:24:34;7.25;;;6.57;;
34836;SDS011;21053;50.848;4.652;2023-09-12T00:27:03;6.90;;;6.35;;
34836;SDS011;21053;50.848;4.652;2023-09-12T00:29:31;7.55;;;6.90;;
34836;SDS011;21053;50.848;4.652;2023-09-12T00:31:57;6.68;;;6.07;;
34836;SDS011;21053;50.848;4.652;2023-09-12T00:34:24;9.80;;;5.25;;
34836;SDS011;21053;50.848;4.652;2023-09-12T00:36:50;6.25;;;5.75;;
34836;SDS011;21053;50.848;4.652;2023-09-12T00:39:17;6.28;;;5.78;;
34836;SDS011;21053;50.848;4.652;2023-09-12T00:41:45;6.55;;;6.05;;
34836;SDS011;21053;50.848;4.652;2023-09-12T00:44:16;7.80;;;5.82;;
34836;SDS011;21053;50.848;4.652;2023-09-12T00:46:43;6.45;;;4.88;;
34836;SDS011;21053;50.848;4.652;2023-09-12T00:49:12;26.17;;;5.57;;
34836;SDS011;21053;50.848;4.652;2023-09-12T00:51:39;6.57;;;6.10;;
34836;SDS011;21053;50.848;4.652;2023-09-12T00:54:05;6.60;;;6.10;;
34836;SDS011;21053;50.848;4.652;2023-09-12T00:56:31;6.53;;;5.93;;
34836;SDS011;21053;50.848;4.652;2023-09-12T00:58:58;6.05;;;5.63;;
34836;SDS011;21053;50.848;4.652;2023-09-12T01:01:27;6.88;;;6.40;;
34836;SDS011;21053;50.848;4.652;2023-09-12T01:03:54;6.63;;;6.10;;
34836;SDS011;21053;50.848;4.652;2023-09-12T01:06:23;14.80;;;5.53;;
34836;SDS011;21053;50.848;4.652;2023-09-12T01:08:53;6.53;;;5.93;;
34836;SDS011;21053;50.848;4.652;2023-09-12T01:11:20;6.63;;;6.13;;
34836;SDS011;21053;50.848;4.652;2023-09-12T01:13:45;5.70;;;5.30;;
34836;SDS011;21053;50.848;4.652;2023-09-12T01:16:11;14.15;;;6.95;;
34836;SDS011;21053;50.848;4.652;2023-09-12T01:18:38;9.02;;;6.60;;
34836;SDS011;21053;50.848;4.652;2023-09-12T01:29:24;6.28;;;5.78;;
34836;SDS011;21053;50.848;4.652;2023-09-12T01:34:20;16.48;;;6.93;;
34836;SDS011;21053;50.848;4.652;2023-09-12T01:36:47;5.70;;;5.30;;
34836;SDS011;21053;50.848;4.652;2023-09-12T01:39:12;6.68;;;6.07;;
34836;SDS011;21053;50.848;4.652;2023-09-12T01:44:11;7.55;;;6.35;;
34836;SDS011;21053;50.848;4.652;2023-09-12T01:46:39;6.78;;;6.28;;
34836;SDS011;21053;50.848;4.652;2023-09-12T01:49:07;6.95;;;6.38;;
34836;SDS011;21053;50.848;4.652;2023-09-12T01:51:36;9.40;;;8.00;;
34836;SDS011;21053;50.848;4.652;2023-09-12T01:54:03;14.57;;;6.88;;
34836;SDS011;21053;50.848;4.652;2023-09-12T01:56:30;7.47;;;6.80;;
34836;SDS011;21053;50.848;4.652;2023-09-12T01:58:58;5.78;;;5.38;;
34836;SDS011;21053;50.848;4.652;2023-09-12T02:01:25;5.95;;;5.55;;
34836;SDS011;21053;50.848;4.652;2023-09-12T02:03:52;6.72;;;6.22;;
34836;SDS011;21053;50.848;4.652;2023-09-12T02:06:19;5.95;;;5.55;;
34836;SDS011;21053;50.848;4.652;2023-09-12T02:08:46;6.95;;;6.45;;
34836;SDS011;21053;50.848;4.652;2023-09-12T02:11:12;6.63;;;6.00;;
34836;SDS011;21053;50.848;4.652;2023-09-12T02:13:37;7.25;;;6.75;;
34836;SDS011;21053;50.848;4.652;2023-09-12T02:16:03;6.25;;;5.80;;
34836;SDS011;21053;50.848;4.652;2023-09-12T02:18:29;6.85;;;6.10;;
34836;SDS011;21053;50.848;4.652;2023-09-12T02:20:55;7.63;;;6.85;;
34836;SDS011;21053;50.848;4.652;2023-09-12T02:23:26;8.60;;;7.00;;
34836;SDS011;21053;50.848;4.652;2023-09-12T02:25:55;7.40;;;6.90;;
34836;SDS011;21053;50.848;4.652;2023-09-12T02:28:25;8.70;;;6.60;;
34836;SDS011;21053;50.848;4.652;2023-09-12T02:34:12;11.45;;;7.38;;
34836;SDS011;21053;50.848;4.652;2023-09-12T02:36:39;8.77;;;7.90;;
34836;SDS011;21053;50.848;4.652;2023-09-12T02:39:07;8.50;;;7.88;;
34836;SDS011;21053;50.848;4.652;2023-09-12T02:41:32;8.38;;;7.32;;
34836;SDS011;21053;50.848;4.652;2023-09-12T02:43:59;8.20;;;7.55;;
34836;SDS011;21053;50.848;4.652;2023-09-12T02:46:26;8.93;;;8.15;;
34836;SDS011;21053;50.848;4.652;2023-09-12T02:48:53;8.25;;;7.50;;
34836;SDS011;21053;50.848;4.652;2023-09-12T02:53:49;8.90;;;8.15;;
34836;SDS011;21053;50.848;4.652;2023-09-12T02:56:16;6.53;;;6.13;;
34836;SDS011;21053;50.848;4.652;2023-09-12T02:58:42;8.35;;;7.70;;
34836;SDS011;21053;50.848;4.652;2023-09-12T03:01:14;10.88;;;9.10;;
34836;SDS011;21053;50.848;4.652;2023-09-12T03:03:41;8.70;;;8.00;;
34836;SDS011;21053;50.848;4.652;2023-09-12T03:06:08;8.43;;;7.72;;
34836;SDS011;21053;50.848;4.652;2023-09-12T03:08:34;8.82;;;8.07;;
34836;SDS011;21053;50.848;4.652;2023-09-12T03:11:00;11.90;;;8.60;;
34836;SDS011;21053;50.848;4.652;2023-09-12T03:13:28;8.48;;;7.80;;
34836;SDS011;21053;50.848;4.652;2023-09-12T03:15:54;7.68;;;6.95;;
34836;SDS011;21053;50.848;4.652;2023-09-12T03:18:20;8.18;;;7.65;;
34836;SDS011;21053;50.848;4.652;2023-09-12T03:20:46;10.45;;;7.95;;
34836;SDS011;21053;50.848;4.652;2023-09-12T03:23:12;7.75;;;7.05;;
34836;SDS011;21053;50.848;4.652;2023-09-12T03:25:38;9.38;;;7.75;;
34836;SDS011;21053;50.848;4.652;2023-09-12T03:28:10;7.70;;;7.00;;
34836;SDS011;21053;50.848;4.652;2023-09-12T03:33:33;8.65;;;7.88;;
34836;SDS011;21053;50.848;4.652;2023-09-12T03:36:01;7.30;;;6.80;;
34836;SDS011;21053;50.848;4.652;2023-09-12T03:38:29;7.70;;;7.07;;
34836;SDS011;21053;50.848;4.652;2023-09-12T03:40:54;11.00;;;9.55;;
34836;SDS011;21053;50.848;4.652;2023-09-12T03:43:20;8.35;;;7.68;;
34836;SDS011;21053;50.848;4.652;2023-09-12T03:45:46;8.20;;;7.57;;
34836;SDS011;21053;50.848;4.652;2023-09-12T03:48:11;9.25;;;8.32;;
34836;SDS011;21053;50.848;4.652;2023-09-12T03:50:37;8.65;;;7.65;;
34836;SDS011;21053;50.848;4.652;2023-09-12T03:55:32;8.43;;;7.60;;
34836;SDS011;21053;50.848;4.652;2023-09-12T03:57:59;7.93;;;7.32;;
34836;SDS011;21053;50.848;4.652;2023-09-12T04:00:24;7.70;;;7.10;;
34836;SDS011;21053;50.848;4.652;2023-09-12T04:02:51;7.60;;;6.95;;
34836;SDS011;21053;50.848;4.652;2023-09-12T04:07:48;9.30;;;7.32;;
34836;SDS011;21053;50.848;4.652;2023-09-12T04:10:14;6.53;;;5.93;;
34836;SDS011;21053;50.848;4.652;2023-09-12T04:12:41;7.38;;;6.70;;
34836;SDS011;21053;50.848;4.652;2023-09-12T04:15:07;6.07;;;5.63;;
34836;SDS011;21053;50.848;4.652;2023-09-12T04:17:34;5.97;;;5.47;;
34836;SDS011;21053;50.848;4.652;2023-09-12T04:20:03;5.50;;;3.88;;
34836;SDS011;21053;50.848;4.652;2023-09-12T04:22:32;8.52;;;6.82;;
34836;SDS011;21053;50.848;4.652;2023-09-12T04:25:00;8.45;;;7.72;;
34836;SDS011;21053;50.848;4.652;2023-09-12T04:27:27;8.90;;;8.00;;
34836;SDS011;21053;50.848;4.652;2023-09-12T04:29:53;8.20;;;6.65;;
34836;SDS011;21053;50.848;4.652;2023-09-12T04:32:20;6.32;;;5.82;;
34836;SDS011;21053;50.848;4.652;2023-09-12T04:34:49;7.70;;;7.03;;
34836;SDS011;21053;50.848;4.652;2023-09-12T04:37:17;7.38;;;6.40;;
34836;SDS011;21053;50.848;4.652;2023-09-12T04:39:44;6.65;;;6.15;;
34836;SDS011;21053;50.848;4.652;2023-09-12T04:42:11;7.10;;;6.50;;
34836;SDS011;21053;50.848;4.652;2023-09-12T04:44:39;22.15;;;6.45;;
34836;SDS011;21053;50.848;4.652;2023-09-12T04:47:09;7.40;;;6.85;;
34836;SDS011;21053;50.848;4.652;2023-09-12T04:49:35;10.82;;;6.50;;
34836;SDS011;21053;50.848;4.652;2023-09-12T04:52:01;9.68;;;7.10;;
34836;SDS011;21053;50.848;4.652;2023-09-12T04:54:28;8.40;;;7.60;;
34836;SDS011;21053;50.848;4.652;2023-09-12T04:56:57;9.07;;;8.18;;
34836;SDS011;21053;50.848;4.652;2023-09-12T04:59:24;6.72;;;6.03;;
34836;SDS011;21053;50.848;4.652;2023-09-12T05:04:18;4.93;;;4.63;;
34836;SDS011;21053;50.848;4.652;2023-09-12T05:06:46;4.97;;;4.57;;
34836;SDS011;21053;50.848;4.652;2023-09-12T05:09:11;10.48;;;6.55;;
34836;SDS011;21053;50.848;4.652;2023-09-12T05:11:37;5.40;;;4.90;;
34836;SDS011;21053;50.848;4.652;2023-09-12T05:14:04;5.22;;;4.72;;
34836;SDS011;21053;50.848;4.652;2023-09-12T05:16:32;8.30;;;5.50;;
34836;SDS011;21053;50.848;4.652;2023-09-12T05:21:27;6.13;;;5.63;;
34836;SDS011;21053;50.848;4.652;2023-09-12T05:23:53;10.57;;;6.07;;
34836;SDS011;21053;50.848;4.652;2023-09-12T05:26:19;6.47;;;6.07;;
34836;SDS011;21053;50.848;4.652;2023-09-12T05:28:45;7.07;;;6.47;;
34836;SDS011;21053;50.848;4.652;2023-09-12T05:31:12;7.07;;;6.13;;
34836;SDS011;21053;50.848;4.652;2023-09-12T05:33:39;7.20;;;6.63;;
34836;SDS011;21053;50.848;4.652;2023-09-12T05:36:10;11.00;;;6.93;;
34836;SDS011;21053;50.848;4.652;2023-09-12T05:38:35;7.53;;;6.75;;
34836;SDS011;21053;50.848;4.652;2023-09-12T05:41:01;8.70;;;6.40;;
34836;SDS011;21053;50.848;4.652;2023-09-12T05:43:27;8.35;;;7.57;;
34836;SDS011;21053;50.848;4.652;2023-09-12T05:45:53;8.05;;;6.78;;
34836;SDS011;21053;50.848;4.652;2023-09-12T05:48:19;6.60;;;6.00;;
34836;SDS011;21053;50.848;4.652;2023-09-12T05:50:45;9.88;;;6.80;;
34836;SDS011;21053;50.848;4.652;2023-09-12T05:53:11;8.00;;;7.20;;
34836;SDS011;21053;50.848;4.652;2023-09-12T05:55:38;8.52;;;7.10;;
34836;SDS011;21053;50.848;4.652;2023-09-12T05:58:05;7.78;;;7.18;;
34836;SDS011;21053;50.848;4.652;2023-09-12T06:00:31;9.55;;;7.65;;
34836;SDS011;21053;50.848;4.652;2023-09-12T06:02:57;7.47;;;6.88;;
34836;SDS011;21053;50.848;4.652;2023-09-12T06:05:23;13.25;;;6.90;;
34836;SDS011;21053;50.848;4.652;2023-09-12T06:07:50;7.10;;;6.53;;
34836;SDS011;21053;50.848;4.652;2023-09-12T06:10:17;7.20;;;6.50;;
34836;SDS011;21053;50.848;4.652;2023-09-12T06:12:43;9.45;;;6.97;;
34836;SDS011;21053;50.848;4.652;2023-09-12T06:15:10;8.15;;;7.28;;
34836;SDS011;21053;50.848;4.652;2023-09-12T06:17:37;11.95;;;7.15;;
34836;SDS011;21053;50.848;4.652;2023-09-12T06:22:32;8.68;;;7.03;;
34836;SDS011;21053;50.848;4.652;2023-09-12T06:24:57;9.43;;;7.03;;
34836;SDS011;21053;50.848;4.652;2023-09-12T06:27:23;6.25;;;5.68;;
34836;SDS011;21053;50.848;4.652;2023-09-12T06:29:49;7.22;;;5.35;;
34836;SDS011;21053;50.848;4.652;2023-09-12T06:32:17;6.00;;;5.40;;
34836;SDS011;21053;50.848;4.652;2023-09-12T06:34:44;8.20;;;5.32;;
34836;SDS011;21053;50.848;4.652;2023-09-12T06:37:10;5.55;;;4.60;;
34836;SDS011;21053;50.848;4.652;2023-09-12T06:39:38;5.18;;;4.20;;
34836;SDS011;21053;50.848;4.652;2023-09-12T06:42:03;4.70;;;4.30;;
34836;SDS011;21053;50.848;4.652;2023-09-12T06:44:30;6.80;;;6.07;;
34836;SDS011;21053;50.848;4.652;2023-09-12T06:46:57;5.63;;;5.13;;
34836;SDS011;21053;50.848;4.652;2023-09-12T06:49:23;7.65;;;6.55;;
34836;SDS011;21053;50.848;4.652;2023-09-12T06:51:48;9.23;;;5.63;;
34836;SDS011;21053;50.848;4.652;2023-09-12T06:54:14;10.82;;;6.38;;
34836;SDS011;21053;50.848;4.652;2023-09-12T06:56:40;10.07;;;5.38;;
34836;SDS011;21053;50.848;4.652;2023-09-12T06:59:07;7.07;;;6.13;;
34836;SDS011;21053;50.848;4.652;2023-09-12T07:01:34;8.20;;;6.20;;
34836;SDS011;21053;50.848;4.652;2023-09-12T07:04:01;6.40;;;5.10;;
34836;SDS011;21053;50.848;4.652;2023-09-12T07:06:27;6.65;;;4.97;;
34836;SDS011;21053;50.848;4.652;2023-09-12T07:08:54;8.57;;;4.47;;
34836;SDS011;21053;50.848;4.652;2023-09-12T07:11:20;10.70;;;5.57;;
34836;SDS011;21053;50.848;4.652;2023-09-12T07:13:46;8.55;;;6.43;;
34836;SDS011;21053;50.848;4.652;2023-09-12T07:16:12;11.15;;;6.30;;
34836;SDS011;21053;50.848;4.652;2023-09-12T07:18:40;12.70;;;6.72;;
34836;SDS011;21053;50.848;4.652;2023-09-12T07:21:06;7.07;;;6.38;;
34836;SDS011;21053;50.848;4.652;2023-09-12T07:23:32;10.63;;;6.38;;
34836;SDS011;21053;50.848;4.652;2023-09-12T07:25:58;18.83;;;6.00;;
34836;SDS011;21053;50.848;4.652;2023-09-12T07:28:25;17.10;;;5.50;;
34836;SDS011;21053;50.848;4.652;2023-09-12T07:30:53;7.68;;;5.22;;
34836;SDS011;21053;50.848;4.652;2023-09-12T07:33:19;6.82;;;5.53;;
34836;SDS011;21053;50.848;4.652;2023-09-12T07:35:47;8.27;;;5.97;;
34836;SDS011;21053;50.848;4.652;2023-09-12T07:38:14;8.18;;;7.32;;
34836;SDS011;21053;50.848;4.652;2023-09-12T07:40:41;12.63;;;5.72;;
34836;SDS011;21053;50.848;4.652;2023-09-12T07:43:07;8.88;;;6.35;;
34836;SDS011;21053;50.848;4.652;2023-09-12T07:45:35;11.85;;;6.97;;
34836;SDS011;21053;50.848;4.652;2023-09-12T07:50:33;15.90;;;7.28;;
34836;SDS011;21053;50.848;4.652;2023-09-12T07:52:59;11.63;;;6.78;;
34836;SDS011;21053;50.848;4.652;2023-09-12T07:55:25;12.98;;;5.82;;
34836;SDS011;21053;50.848;4.652;2023-09-12T07:57:58;23.25;;;7.35;;
34836;SDS011;21053;50.848;4.652;2023-09-12T08:00:24;14.70;;;7.03;;
34836;SDS011;21053;50.848;4.652;2023-09-12T08:02:50;16.60;;;6.63;;
34836;SDS011;21053;50.848;4.652;2023-09-12T08:05:17;13.05;;;6.93;;
34836;SDS011;21053;50.848;4.652;2023-09-12T08:07:44;19.33;;;6.45;;
34836;SDS011;21053;50.848;4.652;2023-09-12T08:10:11;13.80;;;7.45;;
34836;SDS011;21053;50.848;4.652;2023-09-12T08:12:36;16.88;;;10.15;;
34836;SDS011;21053;50.848;4.652;2023-09-12T08:15:06;12.43;;;7.50;;
34836;SDS011;21053;50.848;4.652;2023-09-12T08:17:33;12.98;;;5.85;;
34836;SDS011;21053;50.848;4.652;2023-09-12T08:19:58;20.52;;;7.22;;
34836;SDS011;21053;50.848;4.652;2023-09-12T08:22:25;19.00;;;6.70;;
34836;SDS011;21053;50.848;4.652;2023-09-12T08:24:52;11.63;;;7.30;;
34836;SDS011;21053;50.848;4.652;2023-09-12T08:27:18;14.90;;;6.93;;
34836;SDS011;21053;50.848;4.652;2023-09-12T08:29:44;12.38;;;7.00;;
34836;SDS011;21053;50.848;4.652;2023-09-12T08:32:14;13.63;;;6.90;;
34836;SDS011;21053;50.848;4.652;2023-09-12T08:34:42;11.23;;;6.00;;
34836;SDS011;21053;50.848;4.652;2023-09-12T08:37:10;17.65;;;7.53;;
34836;SDS011;21053;50.848;4.652;2023-09-12T08:39:44;14.32;;;6.13;;
34836;SDS011;21053;50.848;4.652;2023-09-12T08:42:14;11.07;;;5.93;;
34836;SDS011;21053;50.848;4.652;2023-09-12T08:44:41;14.93;;;6.65;;
34836;SDS011;21053;50.848;4.652;2023-09-12T08:47:11;11.65;;;6.90;;
34836;SDS011;21053;50.848;4.652;2023-09-12T08:49:38;10.43;;;7.05;;
34836;SDS011;21053;50.848;4.652;2023-09-12T08:52:07;13.02;;;7.20;;
34836;SDS011;21053;50.848;4.652;2023-09-12T08:54:33;13.15;;;6.65;;
34836;SDS011;21053;50.848;4.652;2023-09-12T08:57:01;11.63;;;6.75;;
34836;SDS011;21053;50.848;4.652;2023-09-12T08:59:33;11.98;;;5.60;;
34836;SDS011;21053;50.848;4.652;2023-09-12T09:02:00;16.40;;;7.47;;
34836;SDS011;21053;50.848;4.652;2023-09-12T09:04:31;8.13;;;5.57;;
34836;SDS011;21053;50.848;4.652;2023-09-12T09:06:59;17.15;;;6.00;;
34836;SDS011;21053;50.848;4.652;2023-09-12T09:09:26;9.02;;;6.30;;
34836;SDS011;21053;50.848;4.652;2023-09-12T09:11:55;9.95;;;6.78;;
34836;SDS011;21053;50.848;4.652;2023-09-12T09:14:21;9.48;;;5.22;;
34836;SDS011;21053;50.848;4.652;2023-09-12T09:16:47;5.45;;;4.15;;
34836;SDS011;21053;50.848;4.652;2023-09-12T09:19:13;7.32;;;4.93;;
34836;SDS011;21053;50.848;4.652;2023-09-12T09:21:42;11.32;;;5.78;;
34836;SDS011;21053;50.848;4.652;2023-09-12T09:24:10;8.52;;;4.70;;
34836;SDS011;21053;50.848;4.652;2023-09-12T09:26:42;13.55;;;5.03;;
34836;SDS011;21053;50.848;4.652;2023-09-12T09:29:17;16.67;;;5.38;;
34836;SDS011;21053;50.848;4.652;2023-09-12T09:31:45;8.65;;;4.35;;
34836;SDS011;21053;50.848;4.652;2023-09-12T09:34:13;8.05;;;4.90;;
34836;SDS011;21053;50.848;4.652;2023-09-12T09:36:41;13.43;;;6.00;;
34836;SDS011;21053;50.848;4.652;2023-09-12T09:39:12;9.90;;;4.57;;
34836;SDS011;21053;50.848;4.652;2023-09-12T09:41:38;7.60;;;5.07;;
34836;SDS011;21053;50.848;4.652;2023-09-12T09:44:05;7.07;;;3.05;;
34836;SDS011;21053;50.848;4.652;2023-09-12T09:46:32;4.88;;;3.00;;
34836;SDS011;21053;50.848;4.652;2023-09-12T09:48:58;7.22;;;3.40;;
34836;SDS011;21053;50.848;4.652;2023-09-12T09:51:25;8.60;;;3.38;;
34836;SDS011;21053;50.848;4.652;2023-09-12T09:53:51;4.70;;;3.05;;
34836;SDS011;21053;50.848;4.652;2023-09-12T09:56:17;10.88;;;3.58;;
34836;SDS011;21053;50.848;4.652;2023-09-12T09:58:51;7.53;;;3.90;;
34836;SDS011;21053;50.848;4.652;2023-09-12T10:01:29;9.98;;;4.28;;
34836;SDS011;21053;50.848;4.652;2023-09-12T10:03:57;4.85;;;2.58;;
34836;SDS011;21053;50.848;4.652;2023-09-12T10:06:24;8.68;;;3.78;;
34836;SDS011;21053;50.848;4.652;2023-09-12T10:08:52;9.77;;;3.42;;
34836;SDS011;21053;50.848;4.652;2023-09-12T10:11:20;15.18;;;3.38;;
34836;SDS011;21053;50.848;4.652;2023-09-12T10:13:56;4.47;;;2.58;;
34836;SDS011;21053;50.848;4.652;2023-09-12T10:16:29;3.45;;;2.25;;
34836;SDS011;21053;50.848;4.652;2023-09-12T10:19:03;5.45;;;3.05;;
34836;SDS011;21053;50.848;4.652;2023-09-12T10:21:31;10.48;;;2.90;;
34836;SDS011;21053;50.848;4.652;2023-09-12T10:23:59;4.75;;;2.63;;
34836;SDS011;21053;50.848;4.652;2023-09-12T10:26:27;2.97;;;2.65;;
34836;SDS011;21053;50.848;4.652;2023-09-12T10:28:54;7.32;;;2.45;;
34836;SDS011;21053;50.848;4.652;2023-09-12T10:31:21;8.85;;;3.78;;
34836;SDS011;21053;50.848;4.652;2023-09-12T10:33:50;13.35;;;1.70;;
34836;SDS011;21053;50.848;4.652;2023-09-12T10:36:17;3.75;;;2.83;;
34836;SDS011;21053;50.848;4.652;2023-09-12T10:38:44;9.90;;;3.03;;
34836;SDS011;21053;50.848;4.652;2023-09-12T10:41:14;8.65;;;2.88;;
34836;SDS011;21053;50.848;4.652;2023-09-12T10:43:42;9.98;;;3.40;;
34836;SDS011;21053;50.848;4.652;2023-09-12T10:46:14;6.28;;;2.45;;
34836;SDS011;21053;50.848;4.652;2023-09-12T10:48:40;11.20;;;3.53;;
34836;SDS011;21053;50.848;4.652;2023-09-12T10:51:08;2.75;;;2.50;;
34836;SDS011;21053;50.848;4.652;2023-09-12T10:53:36;2.72;;;2.05;;
34836;SDS011;21053;50.848;4.652;2023-09-12T11:01:31;5.22;;;2.45;;
34836;SDS011;21053;50.848;4.652;2023-09-12T11:03:58;4.00;;;2.33;;
34836;SDS011;21053;50.848;4.652;2023-09-12T11:06:44;3.45;;;2.58;;
34836;SDS011;21053;50.848;4.652;2023-09-12T11:09:24;4.80;;;2.40;;
34836;SDS011;21053;50.848;4.652;2023-09-12T11:11:58;2.95;;;2.60;;
34836;SDS011;21053;50.848;4.652;2023-09-12T11:19:48;2.83;;;2.37;;
34836;SDS011;21053;50.848;4.652;2023-09-12T11:22:22;3.95;;;2.80;;
34836;SDS011;21053;50.848;4.652;2023-09-12T11:24:52;3.77;;;2.63;;
34836;SDS011;21053;50.848;4.652;2023-09-12T11:27:20;3.10;;;2.42;;
34836;SDS011;21053;50.848;4.652;2023-09-12T11:29:50;2.92;;;2.33;;
34836;SDS011;21053;50.848;4.652;2023-09-12T11:32:27;2.97;;;2.78;;
34836;SDS011;21053;50.848;4.652;2023-09-12T11:34:59;6.20;;;3.70;;
34836;SDS011;21053;50.848;4.652;2023-09-12T11:37:30;3.70;;;2.72;;
34836;SDS011;21053;50.848;4.652;2023-09-12T11:40:00;3.67;;;3.20;;
34836;SDS011;21053;50.848;4.652;2023-09-12T11:42:25;4.00;;;2.53;;
34836;SDS011;21053;50.848;4.652;2023-09-12T11:44:53;2.70;;;2.53;;
34836;SDS011;21053;50.848;4.652;2023-09-12T11:47:22;4.45;;;3.08;;
34836;SDS011;21053;50.848;4.652;2023-09-12T11:49:49;2.20;;;2.10;;
34836;SDS011;21053;50.848;4.652;2023-09-12T11:52:15;3.40;;;2.92;;
34836;SDS011;21053;50.848;4.652;2023-09-12T11:54:45;2.47;;;1.88;;
34836;SDS011;21053;50.848;4.652;2023-09-12T11:57:12;2.50;;;2.28;;
34836;SDS011;21053;50.848;4.652;2023-09-12T11:59:40;3.65;;;2.10;;
34836;SDS011;21053;50.848;4.652;2023-09-12T12:02:08;3.20;;;1.70;;
34836;SDS011;21053;50.848;4.652;2023-09-12T12:04:35;3.13;;;2.55;;
34836;SDS011;21053;50.848;4.652;2023-09-12T12:07:03;1.75;;;1.58;;
34836;SDS011;21053;50.848;4.652;2023-09-12T12:09:33;1.13;;;1.13;;
34836;SDS011;21053;50.848;4.652;2023-09-12T12:15:02;5.53;;;1.73;;
34836;SDS011;21053;50.848;4.652;2023-09-12T12:17:29;2.83;;;1.52;;
34836;SDS011;21053;50.848;4.652;2023-09-12T12:19:58;4.47;;;1.95;;
34836;SDS011;21053;50.848;4.652;2023-09-12T12:22:25;6.70;;;2.13;;
34836;SDS011;21053;50.848;4.652;2023-09-12T12:24:51;1.80;;;1.30;;
34836;SDS011;21053;50.848;4.652;2023-09-12T12:27:16;3.22;;;1.75;;
34836;SDS011;21053;50.848;4.652;2023-09-12T12:29:48;1.45;;;1.35;;
34836;SDS011;21053;50.848;4.652;2023-09-12T12:32:15;4.32;;;1.88;;
34836;SDS011;21053;50.848;4.652;2023-09-12T12:37:19;1.20;;;1.05;;
34836;SDS011;21053;50.848;4.652;2023-09-12T12:42:14;5.82;;;1.70;;
34836;SDS011;21053;50.848;4.652;2023-09-12T12:44:41;2.58;;;1.58;;
34836;SDS011;21053;50.848;4.652;2023-09-12T12:47:08;2.97;;;2.00;;
34836;SDS011;21053;50.848;4.652;2023-09-12T12:49:38;2.28;;;1.52;;
34836;SDS011;21053;50.848;4.652;2023-09-12T12:52:08;9.63;;;1.88;;
34836;SDS011;21053;50.848;4.652;2023-09-12T12:57:08;4.05;;;2.67;;
34836;SDS011;21053;50.848;4.652;2023-09-12T12:59:38;5.28;;;1.67;;
34836;SDS011;21053;50.848;4.652;2023-09-12T13:02:10;1.83;;;1.63;;
34836;SDS011;21053;50.848;4.652;2023-09-12T13:04:37;4.43;;;2.72;;
34836;SDS011;21053;50.848;4.652;2023-09-12T13:07:04;7.65;;;2.55;;
34836;SDS011;21053;50.848;4.652;2023-09-12T13:09:32;5.10;;;2.22;;
34836;SDS011;21053;50.848;4.652;2023-09-12T13:12:00;7.00;;;2.58;;
34836;SDS011;21053;50.848;4.652;2023-09-12T13:14:26;2.17;;;1.98;;
34836;SDS011;21053;50.848;4.652;2023-09-12T13:16:57;6.10;;;2.17;;
34836;SDS011;21053;50.848;4.652;2023-09-12T13:19:25;2.80;;;1.70;;
34836;SDS011;21053;50.848;4.652;2023-09-12T13:21:52;1.73;;;1.63;;
34836;SDS011;21053;50.848;4.652;2023-09-12T13:24:19;8.32;;;2.15;;
34836;SDS011;21053;50.848;4.652;2023-09-12T13:26:47;7.70;;;2.13;;
34836;SDS011;21053;50.848;4.652;2023-09-12T13:29:14;6.50;;;2.20;;
34836;SDS011;21053;50.848;4.652;2023-09-12T13:31:40;4.32;;;2.03;;
34836;SDS011;21053;50.848;4.652;2023-09-12T13:34:06;5.10;;;1.98;;
34836;SDS011;21053;50.848;4.652;2023-09-12T13:36:33;3.20;;;2.67;;
34836;SDS011;21053;50.848;4.652;2023-09-12T13:38:58;4.30;;;2.72;;
34836;SDS011;21053;50.848;4.652;2023-09-12T13:41:25;1.75;;;1.55;;
34836;SDS011;21053;50.848;4.652;2023-09-12T13:43:51;1.77;;;1.67;;
34836;SDS011;21053;50.848;4.652;2023-09-12T13:46:17;8.48;;;2.13;;
34836;SDS011;21053;50.848;4.652;2023-09-12T13:48:42;10.93;;;2.88;;
34836;SDS011;21053;50.848;4.652;2023-09-12T13:51:08;4.47;;;2.05;;
34836;SDS011;21053;50.848;4.652;2023-09-12T13:53:40;7.57;;;2.55;;
34836;SDS011;21053;50.848;4.652;2023-09-12T13:56:06;2.42;;;1.75;;
34836;SDS011;21053;50.848;4.652;2023-09-12T13:58:34;4.13;;;2.03;;
34836;SDS011;21053;50.848;4.652;2023-09-12T14:03:29;4.88;;;2.28;;
34836;SDS011;21053;50.848;4.652;2023-09-12T14:05:58;10.93;;;2.47;;
34836;SDS011;21053;50.848;4.652;2023-09-12T14:08:25;4.10;;;2.45;;
34836;SDS011;21053;50.848;4.652;2023-09-12T14:10:50;4.30;;;2.25;;
34836;SDS011;21053;50.848;4.652;2023-09-12T14:13:17;6.38;;;2.15;;
34836;SDS011;21053;50.848;4.652;2023-09-12T14:15:43;2.60;;;2.33;;
34836;SDS011;21053;50.848;4.652;2023-09-12T14:18:12;10.45;;;2.28;;
34836;SDS011;21053;50.848;4.652;2023-09-12T14:20:40;3.08;;;2.10;;
34836;SDS011;21053;50.848;4.652;2023-09-12T14:23:06;5.40;;;2.03;;
34836;SDS011;21053;50.848;4.652;2023-09-12T14:25:31;1.92;;;1.77;;
34836;SDS011;21053;50.848;4.652;2023-09-12T14:27:58;3.08;;;2.65;;
34836;SDS011;21053;50.848;4.652;2023-09-12T14:30:24;4.18;;;1.63;;
34836;SDS011;21053;50.848;4.652;2023-09-12T14:33:02;3.17;;;1.85;;
34836;SDS011;21053;50.848;4.652;2023-09-12T14:35:30;3.53;;;1.73;;
34836;SDS011;21053;50.848;4.652;2023-09-12T14:37:57;4.72;;;2.13;;
34836;SDS011;21053;50.848;4.652;2023-09-12T14:40:26;2.70;;;1.50;;
34836;SDS011;21053;50.848;4.652;2023-09-12T14:42:55;4.85;;;1.95;;
34836;SDS011;21053;50.848;4.652;2023-09-12T14:45:22;1.05;;;1.02;;
34836;SDS011;21053;50.848;4.652;2023-09-12T14:47:53;2.60;;;1.38;;
34836;SDS011;21053;50.848;4.652;2023-09-12T14:50:21;4.05;;;1.75;;
34836;SDS011;21053;50.848;4.652;2023-09-12T14:53:00;38.72;;;2.03;;
34836;SDS011;21053;50.848;4.652;2023-09-12T14:55:25;7.13;;;3.08;;
34836;SDS011;21053;50.848;4.652;2023-09-12T14:57:52;2.42;;;1.65;;
34836;SDS011;21053;50.848;4.652;2023-09-12T15:02:50;3.38;;;1.88;;
34836;SDS011;21053;50.848;4.652;2023-09-12T15:05:16;4.40;;;2.28;;
34836;SDS011;21053;50.848;4.652;2023-09-12T15:07:42;4.30;;;1.58;;
34836;SDS011;21053;50.848;4.652;2023-09-12T15:10:14;2.47;;;1.83;;
34836;SDS011;21053;50.848;4.652;2023-09-12T15:12:40;2.20;;;1.40;;
34836;SDS011;21053;50.848;4.652;2023-09-12T15:15:07;2.20;;;1.92;;
34836;SDS011;21053;50.848;4.652;2023-09-12T15:17:35;2.22;;;2.03;;
34836;SDS011;21053;50.848;4.652;2023-09-12T15:20:00;1.63;;;1.52;;
34836;SDS011;21053;50.848;4.652;2023-09-12T15:22:32;6.57;;;2.15;;
34836;SDS011;21053;50.848;4.652;2023-09-12T15:24:58;2.00;;;1.70;;
34836;SDS011;21053;50.848;4.652;2023-09-12T15:27:25;8.07;;;3.58;;
34836;SDS011;21053;50.848;4.652;2023-09-12T15:29:51;3.90;;;3.33;;
34836;SDS011;21053;50.848;4.652;2023-09-12T15:32:18;6.97;;;5.13;;
34836;SDS011;21053;50.848;4.652;2023-09-12T15:34:43;4.43;;;3.35;;
34836;SDS011;21053;50.848;4.652;2023-09-12T15:37:10;9.05;;;6.20;;
34836;SDS011;21053;50.848;4.652;2023-09-12T15:39:40;12.98;;;3.33;;
34836;SDS011;21053;50.848;4.652;2023-09-12T15:44:37;3.97;;;2.40;;
34836;SDS011;21053;50.848;4.652;2023-09-12T15:47:08;5.90;;;2.42;;
34836;SDS011;21053;50.848;4.652;2023-09-12T15:49:35;5.05;;;2.75;;
34836;SDS011;21053;50.848;4.652;2023-09-12T15:52:03;3.65;;;1.98;;